Terminal Aerodrome Forecast
Issued by NWS Buffalo, NY

Home | Current Version | Previous Version | Text Only | Print | Product List | Glossary On
Versions: 1 2 3 4 5 6 7 8 9 10 11 12 13 14 15 16 17 18 19 20 21 22 23 24
000
FTUS41 KBUF 111136
TAFROC
TAF
KROC 111136Z 1112/1212 31005KT P6SM SCT025 OVC040
      TEMPO 1112/1114 BKN025
     FM111700 VRB03KT P6SM BKN040
     FM112100 12005KT P6SM BKN040
     FM120000 12008KT P6SM BKN035
     FM120300 14008KT 2SM -SN OVC015
     FM120900 15009KT 1SM -SN OVC015=

USA.gov is the U.S. government's official web portal to all federal, state and local government web resources and services.